GGOV Airport Information

Runway Information
Runway 03 Length 10499 ft width 148 ft
Elevation 129 ft Threshold 0 ft Heading 19
Runway 21 Length 10499 ft Width 148 ft
Elevation 86 ft Threshold 0 ft Heading 199
Airport Frequencies
Type A/G Name A/G VOICE Frequency 343.2 MHZ
Type APP Name APP Frequency 123.9 MHZ
Type TWR Name TWR Frequency 124.3 MHZ
Airport Navaids
Type VOR-DME Name Bissau/Oswaldo Vieira Frequency 114300 KHZ
Type NDB Name Bissau/Oswaldo Vieira Frequency 325 KHZ
Airport Weather Information & NOTAM
ADDS - METARS form results

(0145 UTC 23 January 2019)
Data provider http://aviationweather.gov/metar/data/
 
METAR text: GGOV 230100Z 04006KT CAVOK 22/02 Q1012 NOSIG
Conditions at: GGOV (BISSAU (CIV/MIL), GW) observed 0100 UTC 23 January 2019
Temperature: 22.0°C (72°F)
Dewpoint: 2.0°C (36°F) [RH = 27%]
Pressure (altimeter): 29.88 inches Hg (1012.0 mb)
Winds: from the NE (40 degrees) at 7 MPH (6 knots; 3.1 m/s)
Visibility: 6 or more miles (10+ km)
Ceiling: ceiling and visibility are OK
Clouds: unknown
Weather: no significant weather observed at this time

Forecast for: GGOV (BISSAU (CIV/MIL), GW)
Text: TAF GGOV 222300Z 2300/2324 02009KT CAVOK
Forecast period: 0000 UTC 23 January 2019 to 0000 UTC 24 January 2019
Forecast type: FROM: standard forecast or significant change
Winds: from the NNE (20 degrees) at 10 MPH (9 knots; 4.6 m/s)
Visibility: 6 or more miles 10+ km)
Ceiling: unknown
Clouds: missing
Weather: NSW  (no significant weather)